sensor_id;sensor_type;location;lat;lon;timestamp;P1;durP1;ratioP1;P2;durP2;ratioP2
19879;SDS011;10102;50.828;4.416;2023-07-16T00:02:14;6.28;;;3.10;;
19879;SDS011;10102;50.828;4.416;2023-07-16T00:04:39;15.68;;;3.20;;
19879;SDS011;10102;50.828;4.416;2023-07-16T00:07:05;4.30;;;2.13;;
19879;SDS011;10102;50.828;4.416;2023-07-16T00:09:31;6.80;;;2.22;;
19879;SDS011;10102;50.828;4.416;2023-07-16T00:11:56;9.25;;;2.50;;
19879;SDS011;10102;50.828;4.416;2023-07-16T00:14:22;11.38;;;2.80;;
19879;SDS011;10102;50.828;4.416;2023-07-16T00:16:48;10.95;;;2.47;;
19879;SDS011;10102;50.828;4.416;2023-07-16T00:19:14;7.85;;;2.90;;
19879;SDS011;10102;50.828;4.416;2023-07-16T00:21:40;8.65;;;2.90;;
19879;SDS011;10102;50.828;4.416;2023-07-16T00:24:05;5.95;;;2.47;;
19879;SDS011;10102;50.828;4.416;2023-07-16T00:26:31;5.68;;;2.40;;
19879;SDS011;10102;50.828;4.416;2023-07-16T00:28:57;7.85;;;2.47;;
19879;SDS011;10102;50.828;4.416;2023-07-16T00:31:22;8.40;;;2.97;;
19879;SDS011;10102;50.828;4.416;2023-07-16T00:33:48;7.63;;;2.75;;
19879;SDS011;10102;50.828;4.416;2023-07-16T00:36:14;7.65;;;2.35;;
19879;SDS011;10102;50.828;4.416;2023-07-16T00:38:39;5.07;;;2.15;;
19879;SDS011;10102;50.828;4.416;2023-07-16T00:41:06;13.23;;;2.53;;
19879;SDS011;10102;50.828;4.416;2023-07-16T00:43:32;4.68;;;2.30;;
19879;SDS011;10102;50.828;4.416;2023-07-16T00:45:57;10.60;;;2.53;;
19879;SDS011;10102;50.828;4.416;2023-07-16T00:48:23;16.65;;;2.60;;
19879;SDS011;10102;50.828;4.416;2023-07-16T00:50:50;7.28;;;2.40;;
19879;SDS011;10102;50.828;4.416;2023-07-16T00:53:17;8.20;;;2.38;;
19879;SDS011;10102;50.828;4.416;2023-07-16T00:55:44;12.43;;;2.40;;
19879;SDS011;10102;50.828;4.416;2023-07-16T00:58:10;12.52;;;2.53;;
19879;SDS011;10102;50.828;4.416;2023-07-16T01:00:36;5.50;;;2.38;;
19879;SDS011;10102;50.828;4.416;2023-07-16T01:03:04;14.60;;;2.70;;
19879;SDS011;10102;50.828;4.416;2023-07-16T01:08:49;8.52;;;2.25;;
19879;SDS011;10102;50.828;4.416;2023-07-16T01:11:22;6.28;;;2.47;;
19879;SDS011;10102;50.828;4.416;2023-07-16T01:13:49;8.80;;;2.50;;
19879;SDS011;10102;50.828;4.416;2023-07-16T01:16:20;8.57;;;2.80;;
19879;SDS011;10102;50.828;4.416;2023-07-16T01:18:46;7.95;;;2.83;;
19879;SDS011;10102;50.828;4.416;2023-07-16T01:21:12;10.02;;;3.00;;
19879;SDS011;10102;50.828;4.416;2023-07-16T01:29:07;12.88;;;2.78;;
19879;SDS011;10102;50.828;4.416;2023-07-16T01:31:37;6.50;;;2.65;;
19879;SDS011;10102;50.828;4.416;2023-07-16T01:34:05;11.75;;;3.80;;
19879;SDS011;10102;50.828;4.416;2023-07-16T01:36:31;10.77;;;3.20;;
19879;SDS011;10102;50.828;4.416;2023-07-16T01:38:58;7.40;;;3.25;;
19879;SDS011;10102;50.828;4.416;2023-07-16T01:41:24;14.02;;;3.17;;
19879;SDS011;10102;50.828;4.416;2023-07-16T01:43:50;9.63;;;2.88;;
19879;SDS011;10102;50.828;4.416;2023-07-16T01:46:15;8.38;;;3.03;;
19879;SDS011;10102;50.828;4.416;2023-07-16T01:48:42;9.43;;;2.78;;
19879;SDS011;10102;50.828;4.416;2023-07-16T01:51:07;6.88;;;3.05;;
19879;SDS011;10102;50.828;4.416;2023-07-16T01:53:33;6.15;;;2.75;;
19879;SDS011;10102;50.828;4.416;2023-07-16T01:56:00;18.63;;;3.28;;
19879;SDS011;10102;50.828;4.416;2023-07-16T01:58:27;9.35;;;2.80;;
19879;SDS011;10102;50.828;4.416;2023-07-16T02:00:53;11.32;;;2.92;;
19879;SDS011;10102;50.828;4.416;2023-07-16T02:03:18;12.30;;;3.03;;
19879;SDS011;10102;50.828;4.416;2023-07-16T02:05:44;9.57;;;2.88;;
19879;SDS011;10102;50.828;4.416;2023-07-16T02:08:10;9.70;;;3.35;;
19879;SDS011;10102;50.828;4.416;2023-07-16T02:10:35;8.13;;;3.00;;
19879;SDS011;10102;50.828;4.416;2023-07-16T02:13:01;6.65;;;2.80;;
19879;SDS011;10102;50.828;4.416;2023-07-16T02:15:27;8.35;;;3.72;;
19879;SDS011;10102;50.828;4.416;2023-07-16T02:17:52;8.75;;;3.60;;
19879;SDS011;10102;50.828;4.416;2023-07-16T02:20:18;7.72;;;3.40;;
19879;SDS011;10102;50.828;4.416;2023-07-16T02:22:44;9.85;;;3.55;;
19879;SDS011;10102;50.828;4.416;2023-07-16T02:25:09;12.23;;;3.58;;
19879;SDS011;10102;50.828;4.416;2023-07-16T02:27:35;10.50;;;4.13;;
19879;SDS011;10102;50.828;4.416;2023-07-16T02:30:01;10.57;;;4.55;;
19879;SDS011;10102;50.828;4.416;2023-07-16T02:32:26;8.13;;;3.42;;
19879;SDS011;10102;50.828;4.416;2023-07-16T02:34:52;9.93;;;4.30;;
19879;SDS011;10102;50.828;4.416;2023-07-16T02:37:18;9.55;;;3.75;;
19879;SDS011;10102;50.828;4.416;2023-07-16T02:39:44;14.10;;;4.15;;
19879;SDS011;10102;50.828;4.416;2023-07-16T02:42:12;8.27;;;3.90;;
19879;SDS011;10102;50.828;4.416;2023-07-16T02:44:38;7.75;;;4.43;;
19879;SDS011;10102;50.828;4.416;2023-07-16T02:47:08;15.80;;;4.55;;
19879;SDS011;10102;50.828;4.416;2023-07-16T02:49:34;7.32;;;4.05;;
19879;SDS011;10102;50.828;4.416;2023-07-16T02:51:59;17.30;;;4.65;;
19879;SDS011;10102;50.828;4.416;2023-07-16T02:54:25;13.65;;;4.88;;
19879;SDS011;10102;50.828;4.416;2023-07-16T02:56:51;15.27;;;4.60;;
19879;SDS011;10102;50.828;4.416;2023-07-16T02:59:17;15.95;;;4.53;;
19879;SDS011;10102;50.828;4.416;2023-07-16T03:01:43;10.70;;;4.80;;
19879;SDS011;10102;50.828;4.416;2023-07-16T03:04:08;8.00;;;3.80;;
19879;SDS011;10102;50.828;4.416;2023-07-16T03:06:34;6.18;;;3.53;;
19879;SDS011;10102;50.828;4.416;2023-07-16T03:09:00;7.78;;;4.43;;
19879;SDS011;10102;50.828;4.416;2023-07-16T03:11:25;9.82;;;4.28;;
19879;SDS011;10102;50.828;4.416;2023-07-16T03:13:51;12.90;;;4.32;;
19879;SDS011;10102;50.828;4.416;2023-07-16T03:16:17;10.73;;;4.35;;
19879;SDS011;10102;50.828;4.416;2023-07-16T03:18:43;12.40;;;4.22;;
19879;SDS011;10102;50.828;4.416;2023-07-16T03:21:09;9.50;;;5.28;;
19879;SDS011;10102;50.828;4.416;2023-07-16T03:23:35;12.10;;;4.18;;
19879;SDS011;10102;50.828;4.416;2023-07-16T03:26:01;12.90;;;4.45;;
19879;SDS011;10102;50.828;4.416;2023-07-16T03:28:26;12.32;;;4.18;;
19879;SDS011;10102;50.828;4.416;2023-07-16T03:30:52;12.93;;;4.63;;
19879;SDS011;10102;50.828;4.416;2023-07-16T03:33:19;10.25;;;4.07;;
19879;SDS011;10102;50.828;4.416;2023-07-16T03:35:45;9.88;;;4.22;;
19879;SDS011;10102;50.828;4.416;2023-07-16T03:38:13;15.18;;;4.80;;
19879;SDS011;10102;50.828;4.416;2023-07-16T03:40:39;11.15;;;5.30;;
19879;SDS011;10102;50.828;4.416;2023-07-16T03:43:07;11.20;;;4.45;;
19879;SDS011;10102;50.828;4.416;2023-07-16T03:45:33;10.25;;;4.32;;
19879;SDS011;10102;50.828;4.416;2023-07-16T03:47:59;7.20;;;4.47;;
19879;SDS011;10102;50.828;4.416;2023-07-16T03:50:24;12.93;;;5.15;;
19879;SDS011;10102;50.828;4.416;2023-07-16T03:52:50;15.25;;;5.28;;
19879;SDS011;10102;50.828;4.416;2023-07-16T03:55:15;13.95;;;4.70;;
19879;SDS011;10102;50.828;4.416;2023-07-16T03:57:42;10.90;;;4.55;;
19879;SDS011;10102;50.828;4.416;2023-07-16T04:00:07;10.05;;;4.72;;
19879;SDS011;10102;50.828;4.416;2023-07-16T04:02:35;13.75;;;5.00;;
19879;SDS011;10102;50.828;4.416;2023-07-16T04:05:01;14.80;;;4.82;;
19879;SDS011;10102;50.828;4.416;2023-07-16T04:07:27;8.70;;;4.32;;
19879;SDS011;10102;50.828;4.416;2023-07-16T04:09:53;16.53;;;5.63;;
19879;SDS011;10102;50.828;4.416;2023-07-16T04:12:19;10.43;;;5.15;;
19879;SDS011;10102;50.828;4.416;2023-07-16T04:14:45;11.52;;;5.20;;
19879;SDS011;10102;50.828;4.416;2023-07-16T04:17:11;16.58;;;5.55;;
19879;SDS011;10102;50.828;4.416;2023-07-16T04:19:37;14.55;;;4.90;;
19879;SDS011;10102;50.828;4.416;2023-07-16T04:22:03;14.55;;;5.13;;
19879;SDS011;10102;50.828;4.416;2023-07-16T04:24:29;16.38;;;5.43;;
19879;SDS011;10102;50.828;4.416;2023-07-16T04:26:55;17.48;;;5.10;;
19879;SDS011;10102;50.828;4.416;2023-07-16T04:29:21;12.80;;;4.88;;
19879;SDS011;10102;50.828;4.416;2023-07-16T04:31:48;14.53;;;5.90;;
19879;SDS011;10102;50.828;4.416;2023-07-16T04:34:14;10.18;;;5.07;;
19879;SDS011;10102;50.828;4.416;2023-07-16T04:36:39;14.18;;;5.00;;
19879;SDS011;10102;50.828;4.416;2023-07-16T04:39:06;15.75;;;5.30;;
19879;SDS011;10102;50.828;4.416;2023-07-16T04:41:32;11.73;;;4.78;;
19879;SDS011;10102;50.828;4.416;2023-07-16T04:43:58;12.32;;;4.88;;
19879;SDS011;10102;50.828;4.416;2023-07-16T04:46:23;15.38;;;4.60;;
19879;SDS011;10102;50.828;4.416;2023-07-16T04:48:49;13.32;;;5.53;;
19879;SDS011;10102;50.828;4.416;2023-07-16T04:51:15;14.18;;;5.30;;
19879;SDS011;10102;50.828;4.416;2023-07-16T04:53:40;15.20;;;6.22;;
19879;SDS011;10102;50.828;4.416;2023-07-16T04:56:15;23.48;;;6.07;;
19879;SDS011;10102;50.828;4.416;2023-07-16T04:58:41;16.70;;;5.57;;
19879;SDS011;10102;50.828;4.416;2023-07-16T05:01:08;11.82;;;5.97;;
19879;SDS011;10102;50.828;4.416;2023-07-16T05:03:35;10.05;;;5.25;;
19879;SDS011;10102;50.828;4.416;2023-07-16T05:06:01;13.65;;;6.22;;
19879;SDS011;10102;50.828;4.416;2023-07-16T05:08:27;14.18;;;5.78;;
19879;SDS011;10102;50.828;4.416;2023-07-16T05:10:53;16.25;;;6.40;;
19879;SDS011;10102;50.828;4.416;2023-07-16T05:13:19;19.60;;;6.47;;
19879;SDS011;10102;50.828;4.416;2023-07-16T05:15:46;12.20;;;5.55;;
19879;SDS011;10102;50.828;4.416;2023-07-16T05:20:46;15.45;;;5.65;;
19879;SDS011;10102;50.828;4.416;2023-07-16T05:23:12;18.60;;;6.88;;
19879;SDS011;10102;50.828;4.416;2023-07-16T05:25:38;13.52;;;6.60;;
19879;SDS011;10102;50.828;4.416;2023-07-16T05:28:04;19.10;;;6.63;;
19879;SDS011;10102;50.828;4.416;2023-07-16T05:30:29;15.30;;;6.05;;
19879;SDS011;10102;50.828;4.416;2023-07-16T05:32:55;13.65;;;6.10;;
19879;SDS011;10102;50.828;4.416;2023-07-16T05:35:21;15.30;;;5.75;;
19879;SDS011;10102;50.828;4.416;2023-07-16T05:37:46;16.25;;;6.43;;
19879;SDS011;10102;50.828;4.416;2023-07-16T05:40:12;12.13;;;6.45;;
19879;SDS011;10102;50.828;4.416;2023-07-16T05:42:38;12.13;;;6.32;;
19879;SDS011;10102;50.828;4.416;2023-07-16T05:45:04;16.02;;;5.85;;
19879;SDS011;10102;50.828;4.416;2023-07-16T05:47:30;14.73;;;6.15;;
19879;SDS011;10102;50.828;4.416;2023-07-16T05:49:55;15.10;;;6.35;;
19879;SDS011;10102;50.828;4.416;2023-07-16T05:52:21;15.68;;;6.15;;
19879;SDS011;10102;50.828;4.416;2023-07-16T05:54:47;18.35;;;6.60;;
19879;SDS011;10102;50.828;4.416;2023-07-16T05:57:12;20.42;;;6.43;;
19879;SDS011;10102;50.828;4.416;2023-07-16T05:59:38;16.20;;;5.65;;
19879;SDS011;10102;50.828;4.416;2023-07-16T06:02:04;14.43;;;7.00;;
19879;SDS011;10102;50.828;4.416;2023-07-16T06:04:30;18.70;;;6.00;;
19879;SDS011;10102;50.828;4.416;2023-07-16T06:06:56;18.10;;;6.18;;
19879;SDS011;10102;50.828;4.416;2023-07-16T06:09:28;13.80;;;7.03;;
19879;SDS011;10102;50.828;4.416;2023-07-16T06:11:54;15.40;;;7.13;;
19879;SDS011;10102;50.828;4.416;2023-07-16T06:14:20;15.63;;;6.30;;
19879;SDS011;10102;50.828;4.416;2023-07-16T06:16:45;15.80;;;5.60;;
19879;SDS011;10102;50.828;4.416;2023-07-16T06:19:11;23.60;;;7.28;;
19879;SDS011;10102;50.828;4.416;2023-07-16T06:21:36;16.23;;;6.70;;
19879;SDS011;10102;50.828;4.416;2023-07-16T06:24:02;13.23;;;5.80;;
19879;SDS011;10102;50.828;4.416;2023-07-16T06:26:28;20.23;;;6.90;;
19879;SDS011;10102;50.828;4.416;2023-07-16T06:28:53;20.23;;;6.30;;
19879;SDS011;10102;50.828;4.416;2023-07-16T06:31:19;11.00;;;6.30;;
19879;SDS011;10102;50.828;4.416;2023-07-16T06:33:45;15.48;;;6.55;;
19879;SDS011;10102;50.828;4.416;2023-07-16T06:36:12;13.50;;;5.55;;
19879;SDS011;10102;50.828;4.416;2023-07-16T06:38:38;17.58;;;6.43;;
19879;SDS011;10102;50.828;4.416;2023-07-16T06:41:03;12.70;;;6.38;;
19879;SDS011;10102;50.828;4.416;2023-07-16T06:43:29;15.70;;;6.88;;
19879;SDS011;10102;50.828;4.416;2023-07-16T06:45:55;22.77;;;6.50;;
19879;SDS011;10102;50.828;4.416;2023-07-16T06:48:20;16.85;;;7.45;;
19879;SDS011;10102;50.828;4.416;2023-07-16T06:50:46;18.35;;;6.82;;
19879;SDS011;10102;50.828;4.416;2023-07-16T06:53:12;16.52;;;6.63;;
19879;SDS011;10102;50.828;4.416;2023-07-16T06:55:38;18.77;;;6.28;;
19879;SDS011;10102;50.828;4.416;2023-07-16T06:58:03;14.30;;;6.10;;
19879;SDS011;10102;50.828;4.416;2023-07-16T07:00:29;17.25;;;6.95;;
19879;SDS011;10102;50.828;4.416;2023-07-16T07:02:57;19.95;;;7.03;;
19879;SDS011;10102;50.828;4.416;2023-07-16T07:05:22;15.85;;;7.03;;
19879;SDS011;10102;50.828;4.416;2023-07-16T07:07:48;19.25;;;6.30;;
19879;SDS011;10102;50.828;4.416;2023-07-16T07:10:14;14.27;;;6.25;;
19879;SDS011;10102;50.828;4.416;2023-07-16T07:12:39;18.73;;;6.93;;
19879;SDS011;10102;50.828;4.416;2023-07-16T07:15:06;13.73;;;5.78;;
19879;SDS011;10102;50.828;4.416;2023-07-16T07:17:32;17.45;;;6.60;;
19879;SDS011;10102;50.828;4.416;2023-07-16T07:19:58;11.18;;;5.22;;
19879;SDS011;10102;50.828;4.416;2023-07-16T07:22:23;17.15;;;7.25;;
19879;SDS011;10102;50.828;4.416;2023-07-16T07:24:49;17.38;;;6.82;;
19879;SDS011;10102;50.828;4.416;2023-07-16T07:27:15;14.40;;;6.38;;
19879;SDS011;10102;50.828;4.416;2023-07-16T07:29:41;20.40;;;7.05;;
19879;SDS011;10102;50.828;4.416;2023-07-16T07:32:07;15.50;;;6.60;;
19879;SDS011;10102;50.828;4.416;2023-07-16T07:34:32;18.83;;;6.80;;
19879;SDS011;10102;50.828;4.416;2023-07-16T07:36:58;15.88;;;6.72;;
19879;SDS011;10102;50.828;4.416;2023-07-16T07:39:24;13.35;;;6.30;;
19879;SDS011;10102;50.828;4.416;2023-07-16T07:41:49;14.95;;;6.82;;
19879;SDS011;10102;50.828;4.416;2023-07-16T07:44:15;16.07;;;7.30;;
19879;SDS011;10102;50.828;4.416;2023-07-16T07:46:41;13.27;;;6.65;;
19879;SDS011;10102;50.828;4.416;2023-07-16T07:49:06;14.27;;;6.20;;
19879;SDS011;10102;50.828;4.416;2023-07-16T07:51:32;12.18;;;6.32;;
19879;SDS011;10102;50.828;4.416;2023-07-16T07:53:58;17.60;;;7.20;;
19879;SDS011;10102;50.828;4.416;2023-07-16T07:56:23;14.80;;;6.18;;
19879;SDS011;10102;50.828;4.416;2023-07-16T07:58:49;17.85;;;6.63;;
19879;SDS011;10102;50.828;4.416;2023-07-16T08:01:14;18.13;;;6.35;;
19879;SDS011;10102;50.828;4.416;2023-07-16T08:03:40;16.05;;;6.38;;
19879;SDS011;10102;50.828;4.416;2023-07-16T08:06:05;18.63;;;6.68;;
19879;SDS011;10102;50.828;4.416;2023-07-16T08:08:31;13.00;;;6.65;;
19879;SDS011;10102;50.828;4.416;2023-07-16T08:10:57;16.08;;;6.50;;
19879;SDS011;10102;50.828;4.416;2023-07-16T08:13:22;16.95;;;6.72;;
19879;SDS011;10102;50.828;4.416;2023-07-16T08:15:48;13.05;;;6.25;;
19879;SDS011;10102;50.828;4.416;2023-07-16T08:18:13;15.90;;;6.50;;
19879;SDS011;10102;50.828;4.416;2023-07-16T08:20:39;15.23;;;6.57;;
19879;SDS011;10102;50.828;4.416;2023-07-16T08:23:06;14.25;;;6.07;;
19879;SDS011;10102;50.828;4.416;2023-07-16T08:25:31;13.80;;;6.28;;
19879;SDS011;10102;50.828;4.416;2023-07-16T08:27:57;12.13;;;5.88;;
19879;SDS011;10102;50.828;4.416;2023-07-16T08:30:23;13.60;;;5.78;;
19879;SDS011;10102;50.828;4.416;2023-07-16T08:32:48;9.82;;;5.40;;
19879;SDS011;10102;50.828;4.416;2023-07-16T08:35:15;11.07;;;5.68;;
19879;SDS011;10102;50.828;4.416;2023-07-16T08:37:45;18.17;;;6.18;;
19879;SDS011;10102;50.828;4.416;2023-07-16T08:40:11;11.23;;;6.03;;
19879;SDS011;10102;50.828;4.416;2023-07-16T08:42:39;15.45;;;6.25;;
19879;SDS011;10102;50.828;4.416;2023-07-16T08:45:09;16.25;;;6.13;;
19879;SDS011;10102;50.828;4.416;2023-07-16T08:47:36;15.32;;;6.03;;
19879;SDS011;10102;50.828;4.416;2023-07-16T08:50:02;14.43;;;5.82;;
19879;SDS011;10102;50.828;4.416;2023-07-16T08:52:30;16.63;;;5.43;;
19879;SDS011;10102;50.828;4.416;2023-07-16T08:54:56;13.55;;;5.43;;
19879;SDS011;10102;50.828;4.416;2023-07-16T08:57:24;9.23;;;5.50;;
19879;SDS011;10102;50.828;4.416;2023-07-16T08:59:51;17.30;;;5.88;;
19879;SDS011;10102;50.828;4.416;2023-07-16T09:02:17;13.25;;;6.15;;
19879;SDS011;10102;50.828;4.416;2023-07-16T09:04:44;17.20;;;5.88;;
19879;SDS011;10102;50.828;4.416;2023-07-16T09:07:16;13.77;;;6.38;;
19879;SDS011;10102;50.828;4.416;2023-07-16T09:09:41;13.38;;;5.72;;
19879;SDS011;10102;50.828;4.416;2023-07-16T09:12:16;8.32;;;5.32;;
19879;SDS011;10102;50.828;4.416;2023-07-16T09:14:42;11.52;;;5.30;;
19879;SDS011;10102;50.828;4.416;2023-07-16T09:17:09;9.80;;;4.63;;
19879;SDS011;10102;50.828;4.416;2023-07-16T09:19:35;11.52;;;4.70;;
19879;SDS011;10102;50.828;4.416;2023-07-16T09:22:01;12.02;;;5.15;;
19879;SDS011;10102;50.828;4.416;2023-07-16T09:24:27;12.95;;;4.90;;
19879;SDS011;10102;50.828;4.416;2023-07-16T09:26:54;8.15;;;4.28;;
19879;SDS011;10102;50.828;4.416;2023-07-16T09:29:24;11.52;;;5.28;;
19879;SDS011;10102;50.828;4.416;2023-07-16T09:31:59;14.80;;;4.60;;
19879;SDS011;10102;50.828;4.416;2023-07-16T09:34:28;12.75;;;5.32;;
19879;SDS011;10102;50.828;4.416;2023-07-16T09:36:56;9.02;;;4.93;;
19879;SDS011;10102;50.828;4.416;2023-07-16T09:39:22;9.45;;;4.85;;
19879;SDS011;10102;50.828;4.416;2023-07-16T09:41:51;10.02;;;5.45;;
19879;SDS011;10102;50.828;4.416;2023-07-16T09:44:18;11.18;;;5.93;;
19879;SDS011;10102;50.828;4.416;2023-07-16T09:46:44;9.15;;;4.13;;
19879;SDS011;10102;50.828;4.416;2023-07-16T09:49:11;13.30;;;5.30;;
19879;SDS011;10102;50.828;4.416;2023-07-16T09:51:38;11.52;;;5.32;;
19879;SDS011;10102;50.828;4.416;2023-07-16T09:54:04;14.23;;;5.32;;
19879;SDS011;10102;50.828;4.416;2023-07-16T09:56:39;14.45;;;4.63;;
19879;SDS011;10102;50.828;4.416;2023-07-16T09:59:12;8.90;;;4.72;;
19879;SDS011;10102;50.828;4.416;2023-07-16T10:01:41;21.20;;;4.80;;
19879;SDS011;10102;50.828;4.416;2023-07-16T10:04:17;11.23;;;4.35;;
19879;SDS011;10102;50.828;4.416;2023-07-16T10:09:38;7.97;;;5.25;;
19879;SDS011;10102;50.828;4.416;2023-07-16T10:12:16;12.18;;;4.70;;
19879;SDS011;10102;50.828;4.416;2023-07-16T10:17:21;10.50;;;4.72;;
19879;SDS011;10102;50.828;4.416;2023-07-16T10:22:30;11.48;;;4.72;;
19879;SDS011;10102;50.828;4.416;2023-07-16T10:25:10;8.25;;;3.90;;
19879;SDS011;10102;50.828;4.416;2023-07-16T10:27:42;10.80;;;4.10;;
19879;SDS011;10102;50.828;4.416;2023-07-16T10:30:08;13.48;;;5.03;;
19879;SDS011;10102;50.828;4.416;2023-07-16T10:32:34;10.77;;;5.05;;
19879;SDS011;10102;50.828;4.416;2023-07-16T10:35:02;12.73;;;5.00;;
19879;SDS011;10102;50.828;4.416;2023-07-16T10:37:31;9.85;;;4.70;;
19879;SDS011;10102;50.828;4.416;2023-07-16T10:39:57;9.65;;;4.95;;
19879;SDS011;10102;50.828;4.416;2023-07-16T10:42:26;11.38;;;4.68;;
19879;SDS011;10102;50.828;4.416;2023-07-16T10:44:59;7.10;;;4.32;;
19879;SDS011;10102;50.828;4.416;2023-07-16T10:49:58;9.00;;;4.43;;
19879;SDS011;10102;50.828;4.416;2023-07-16T10:52:24;11.00;;;4.25;;
19879;SDS011;10102;50.828;4.416;2023-07-16T10:54:51;11.70;;;4.28;;
19879;SDS011;10102;50.828;4.416;2023-07-16T10:57:21;10.27;;;4.50;;
19879;SDS011;10102;50.828;4.416;2023-07-16T10:59:47;9.18;;;4.20;;
19879;SDS011;10102;50.828;4.416;2023-07-16T11:02:15;14.55;;;5.30;;
19879;SDS011;10102;50.828;4.416;2023-07-16T11:04:42;9.18;;;4.10;;
19879;SDS011;10102;50.828;4.416;2023-07-16T11:07:11;10.80;;;4.45;;
19879;SDS011;10102;50.828;4.416;2023-07-16T11:09:41;11.60;;;4.40;;
19879;SDS011;10102;50.828;4.416;2023-07-16T11:12:09;14.98;;;4.78;;
19879;SDS011;10102;50.828;4.416;2023-07-16T11:14:36;11.48;;;4.82;;
19879;SDS011;10102;50.828;4.416;2023-07-16T11:17:06;10.77;;;4.35;;
19879;SDS011;10102;50.828;4.416;2023-07-16T11:19:36;16.45;;;4.90;;
19879;SDS011;10102;50.828;4.416;2023-07-16T11:22:03;14.40;;;4.97;;
19879;SDS011;10102;50.828;4.416;2023-07-16T11:24:50;9.40;;;4.50;;
19879;SDS011;10102;50.828;4.416;2023-07-16T11:27:17;8.25;;;4.15;;
19879;SDS011;10102;50.828;4.416;2023-07-16T11:29:50;11.90;;;4.65;;
19879;SDS011;10102;50.828;4.416;2023-07-16T11:32:31;8.85;;;4.38;;
19879;SDS011;10102;50.828;4.416;2023-07-16T11:34:59;13.98;;;4.53;;
19879;SDS011;10102;50.828;4.416;2023-07-16T11:37:26;8.40;;;3.50;;
19879;SDS011;10102;50.828;4.416;2023-07-16T11:39:57;14.63;;;4.57;;
19879;SDS011;10102;50.828;4.416;2023-07-16T11:42:24;11.57;;;4.63;;
19879;SDS011;10102;50.828;4.416;2023-07-16T11:44:57;13.95;;;5.25;;
19879;SDS011;10102;50.828;4.416;2023-07-16T11:47:25;12.82;;;5.55;;
19879;SDS011;10102;50.828;4.416;2023-07-16T11:49:52;10.48;;;5.25;;
19879;SDS011;10102;50.828;4.416;2023-07-16T11:54:51;10.48;;;4.38;;
19879;SDS011;10102;50.828;4.416;2023-07-16T11:57:17;8.65;;;4.35;;
19879;SDS011;10102;50.828;4.416;2023-07-16T11:59:43;11.38;;;4.47;;
19879;SDS011;10102;50.828;4.416;2023-07-16T12:02:09;12.82;;;5.40;;
19879;SDS011;10102;50.828;4.416;2023-07-16T12:04:36;9.45;;;4.07;;
19879;SDS011;10102;50.828;4.416;2023-07-16T12:07:02;8.35;;;4.30;;
19879;SDS011;10102;50.828;4.416;2023-07-16T12:09:28;9.25;;;4.15;;
19879;SDS011;10102;50.828;4.416;2023-07-16T12:11:55;6.93;;;3.88;;
19879;SDS011;10102;50.828;4.416;2023-07-16T12:14:22;9.57;;;4.22;;
19879;SDS011;10102;50.828;4.416;2023-07-16T12:16:48;11.18;;;4.63;;
19879;SDS011;10102;50.828;4.416;2023-07-16T12:19:15;8.27;;;3.83;;
19879;SDS011;10102;50.828;4.416;2023-07-16T12:21:42;8.57;;;3.95;;
19879;SDS011;10102;50.828;4.416;2023-07-16T12:24:08;10.15;;;3.95;;
19879;SDS011;10102;50.828;4.416;2023-07-16T12:26:34;6.68;;;3.65;;
19879;SDS011;10102;50.828;4.416;2023-07-16T12:29:00;8.15;;;3.58;;
19879;SDS011;10102;50.828;4.416;2023-07-16T12:31:32;10.27;;;3.65;;
19879;SDS011;10102;50.828;4.416;2023-07-16T12:33:58;7.13;;;3.38;;
19879;SDS011;10102;50.828;4.416;2023-07-16T12:36:24;14.18;;;3.88;;
19879;SDS011;10102;50.828;4.416;2023-07-16T12:38:51;8.48;;;3.85;;
19879;SDS011;10102;50.828;4.416;2023-07-16T12:41:18;5.88;;;3.65;;
19879;SDS011;10102;50.828;4.416;2023-07-16T12:43:43;9.48;;;3.40;;
19879;SDS011;10102;50.828;4.416;2023-07-16T12:46:09;10.60;;;4.00;;
19879;SDS011;10102;50.828;4.416;2023-07-16T12:48:35;8.75;;;2.97;;
19879;SDS011;10102;50.828;4.416;2023-07-16T12:51:00;12.30;;;3.67;;
19879;SDS011;10102;50.828;4.416;2023-07-16T12:53:27;10.15;;;3.88;;
19879;SDS011;10102;50.828;4.416;2023-07-16T12:55:53;9.50;;;3.95;;
19879;SDS011;10102;50.828;4.416;2023-07-16T12:58:19;6.60;;;4.10;;
19879;SDS011;10102;50.828;4.416;2023-07-16T13:00:45;7.75;;;3.28;;
19879;SDS011;10102;50.828;4.416;2023-07-16T13:03:11;7.25;;;3.45;;
19879;SDS011;10102;50.828;4.416;2023-07-16T13:05:39;6.82;;;3.63;;
19879;SDS011;10102;50.828;4.416;2023-07-16T13:08:07;9.32;;;3.47;;
19879;SDS011;10102;50.828;4.416;2023-07-16T13:10:35;11.07;;;3.33;;
19879;SDS011;10102;50.828;4.416;2023-07-16T13:13:01;12.02;;;3.80;;
19879;SDS011;10102;50.828;4.416;2023-07-16T13:15:28;10.52;;;3.40;;
19879;SDS011;10102;50.828;4.416;2023-07-16T13:17:55;8.00;;;3.05;;
19879;SDS011;10102;50.828;4.416;2023-07-16T13:20:21;5.97;;;3.45;;
19879;SDS011;10102;50.828;4.416;2023-07-16T13:22:48;8.07;;;3.78;;
19879;SDS011;10102;50.828;4.416;2023-07-16T13:25:14;7.05;;;3.03;;
19879;SDS011;10102;50.828;4.416;2023-07-16T13:27:41;5.60;;;3.20;;
19879;SDS011;10102;50.828;4.416;2023-07-16T13:30:06;7.15;;;3.55;;
19879;SDS011;10102;50.828;4.416;2023-07-16T13:32:34;11.48;;;3.75;;
19879;SDS011;10102;50.828;4.416;2023-07-16T13:35:00;5.55;;;3.30;;
19879;SDS011;10102;50.828;4.416;2023-07-16T13:37:26;6.70;;;2.95;;
19879;SDS011;10102;50.828;4.416;2023-07-16T13:39:53;6.93;;;2.88;;
19879;SDS011;10102;50.828;4.416;2023-07-16T13:42:19;16.40;;;3.65;;
19879;SDS011;10102;50.828;4.416;2023-07-16T13:44:46;9.95;;;3.95;;
19879;SDS011;10102;50.828;4.416;2023-07-16T13:47:11;9.23;;;3.55;;
19879;SDS011;10102;50.828;4.416;2023-07-16T13:49:38;5.28;;;3.00;;
19879;SDS011;10102;50.828;4.416;2023-07-16T13:52:03;6.45;;;2.92;;
19879;SDS011;10102;50.828;4.416;2023-07-16T13:54:29;8.57;;;2.38;;
19879;SDS011;10102;50.828;4.416;2023-07-16T13:56:55;3.65;;;1.92;;
19879;SDS011;10102;50.828;4.416;2023-07-16T13:59:21;4.70;;;2.22;;
19879;SDS011;10102;50.828;4.416;2023-07-16T14:01:47;8.40;;;2.33;;
19879;SDS011;10102;50.828;4.416;2023-07-16T14:04:28;3.38;;;2.03;;
19879;SDS011;10102;50.828;4.416;2023-07-16T14:06:54;4.88;;;2.75;;
19879;SDS011;10102;50.828;4.416;2023-07-16T14:09:20;3.67;;;2.33;;
19879;SDS011;10102;50.828;4.416;2023-07-16T14:11:46;5.53;;;2.40;;
19879;SDS011;10102;50.828;4.416;2023-07-16T14:14:16;3.90;;;2.33;;
19879;SDS011;10102;50.828;4.416;2023-07-16T14:16:43;6.18;;;2.88;;
19879;SDS011;10102;50.828;4.416;2023-07-16T14:19:09;5.43;;;2.50;;
19879;SDS011;10102;50.828;4.416;2023-07-16T14:21:37;4.50;;;2.75;;
19879;SDS011;10102;50.828;4.416;2023-07-16T14:24:03;6.35;;;3.00;;
19879;SDS011;10102;50.828;4.416;2023-07-16T14:26:29;5.57;;;2.67;;
19879;SDS011;10102;50.828;4.416;2023-07-16T14:28:55;7.95;;;3.05;;
19879;SDS011;10102;50.828;4.416;2023-07-16T14:31:21;11.55;;;3.85;;
19879;SDS011;10102;50.828;4.416;2023-07-16T14:33:47;7.20;;;2.90;;
19879;SDS011;10102;50.828;4.416;2023-07-16T14:36:15;8.43;;;3.28;;
19879;SDS011;10102;50.828;4.416;2023-07-16T14:38:41;6.22;;;3.38;;
19879;SDS011;10102;50.828;4.416;2023-07-16T14:41:07;8.32;;;3.20;;
19879;SDS011;10102;50.828;4.416;2023-07-16T14:43:33;4.97;;;3.15;;
19879;SDS011;10102;50.828;4.416;2023-07-16T14:45:59;7.95;;;3.05;;
19879;SDS011;10102;50.828;4.416;2023-07-16T14:48:24;7.13;;;2.72;;
19879;SDS011;10102;50.828;4.416;2023-07-16T14:50:52;9.07;;;2.92;;
19879;SDS011;10102;50.828;4.416;2023-07-16T14:53:18;4.32;;;2.70;;
19879;SDS011;10102;50.828;4.416;2023-07-16T14:55:50;3.60;;;2.20;;
19879;SDS011;10102;50.828;4.416;2023-07-16T14:58:17;6.07;;;2.65;;
19879;SDS011;10102;50.828;4.416;2023-07-16T15:00:44;5.38;;;1.95;;